sensor_id;sensor_type;location;lat;lon;timestamp;P1;durP1;ratioP1;P2;durP2;ratioP2
7829;SDS011;3960;51.86894000;5.39848000;2022-11-15T00:01:22;55.53;;;21.13;;
7829;SDS011;3960;51.86894000;5.39848000;2022-11-15T00:03:50;50.60;;;23.10;;
7829;SDS011;3960;51.86894000;5.39848000;2022-11-15T00:06:15;59.63;;;22.35;;
7829;SDS011;3960;51.86894000;5.39848000;2022-11-15T00:08:40;56.50;;;25.33;;
7829;SDS011;3960;51.86894000;5.39848000;2022-11-15T00:11:05;70.63;;;24.40;;
7829;SDS011;3960;51.86894000;5.39848000;2022-11-15T00:13:30;59.00;;;23.80;;
7829;SDS011;3960;51.86894000;5.39848000;2022-11-15T00:15:56;58.23;;;23.87;;
7829;SDS011;3960;51.86894000;5.39848000;2022-11-15T00:18:21;61.33;;;23.30;;
7829;SDS011;3960;51.86894000;5.39848000;2022-11-15T00:20:46;66.53;;;24.60;;
7829;SDS011;3960;51.86894000;5.39848000;2022-11-15T00:23:12;74.97;;;26.05;;
7829;SDS011;3960;51.86894000;5.39848000;2022-11-15T00:25:37;69.60;;;25.77;;
7829;SDS011;3960;51.86894000;5.39848000;2022-11-15T00:28:02;49.72;;;22.90;;
7829;SDS011;3960;51.86894000;5.39848000;2022-11-15T00:30:27;62.25;;;24.00;;
7829;SDS011;3960;51.86894000;5.39848000;2022-11-15T00:32:53;63.28;;;26.27;;
7829;SDS011;3960;51.86894000;5.39848000;2022-11-15T00:35:18;64.70;;;26.00;;
7829;SDS011;3960;51.86894000;5.39848000;2022-11-15T00:37:43;76.45;;;26.73;;
7829;SDS011;3960;51.86894000;5.39848000;2022-11-15T00:40:09;80.60;;;27.57;;
7829;SDS011;3960;51.86894000;5.39848000;2022-11-15T00:42:34;66.43;;;25.95;;
7829;SDS011;3960;51.86894000;5.39848000;2022-11-15T00:45:00;80.43;;;28.30;;
7829;SDS011;3960;51.86894000;5.39848000;2022-11-15T00:47:25;72.00;;;26.67;;
7829;SDS011;3960;51.86894000;5.39848000;2022-11-15T00:49:50;67.43;;;27.93;;
7829;SDS011;3960;51.86894000;5.39848000;2022-11-15T00:52:15;75.00;;;27.90;;
7829;SDS011;3960;51.86894000;5.39848000;2022-11-15T00:54:40;69.17;;;27.70;;
7829;SDS011;3960;51.86894000;5.39848000;2022-11-15T00:57:05;67.63;;;27.70;;
7829;SDS011;3960;51.86894000;5.39848000;2022-11-15T00:59:30;78.57;;;27.90;;
7829;SDS011;3960;51.86894000;5.39848000;2022-11-15T01:01:56;73.37;;;27.93;;
7829;SDS011;3960;51.86894000;5.39848000;2022-11-15T01:04:21;80.82;;;27.73;;
7829;SDS011;3960;51.86894000;5.39848000;2022-11-15T01:06:46;70.27;;;28.07;;
7829;SDS011;3960;51.86894000;5.39848000;2022-11-15T01:09:11;77.93;;;26.33;;
7829;SDS011;3960;51.86894000;5.39848000;2022-11-15T01:11:36;77.50;;;26.25;;
7829;SDS011;3960;51.86894000;5.39848000;2022-11-15T01:14:01;71.23;;;26.23;;
7829;SDS011;3960;51.86894000;5.39848000;2022-11-15T01:16:27;62.37;;;25.03;;
7829;SDS011;3960;51.86894000;5.39848000;2022-11-15T01:18:52;66.60;;;27.93;;
7829;SDS011;3960;51.86894000;5.39848000;2022-11-15T01:21:18;67.13;;;24.77;;
7829;SDS011;3960;51.86894000;5.39848000;2022-11-15T01:23:43;64.22;;;26.90;;
7829;SDS011;3960;51.86894000;5.39848000;2022-11-15T01:26:10;68.03;;;26.50;;
7829;SDS011;3960;51.86894000;5.39848000;2022-11-15T01:28:37;67.18;;;26.60;;
7829;SDS011;3960;51.86894000;5.39848000;2022-11-15T01:31:03;60.22;;;24.45;;
7829;SDS011;3960;51.86894000;5.39848000;2022-11-15T01:33:28;52.55;;;23.65;;
7829;SDS011;3960;51.86894000;5.39848000;2022-11-15T01:35:54;61.33;;;24.02;;
7829;SDS011;3960;51.86894000;5.39848000;2022-11-15T01:38:19;69.85;;;23.50;;
7829;SDS011;3960;51.86894000;5.39848000;2022-11-15T01:40:44;59.55;;;24.60;;
7829;SDS011;3960;51.86894000;5.39848000;2022-11-15T01:43:22;51.53;;;24.93;;
7829;SDS011;3960;51.86894000;5.39848000;2022-11-15T01:45:50;56.42;;;25.73;;
7829;SDS011;3960;51.86894000;5.39848000;2022-11-15T01:48:16;53.78;;;24.23;;
7829;SDS011;3960;51.86894000;5.39848000;2022-11-15T01:50:41;61.03;;;25.20;;
7829;SDS011;3960;51.86894000;5.39848000;2022-11-15T01:53:06;58.30;;;24.02;;
7829;SDS011;3960;51.86894000;5.39848000;2022-11-15T01:55:32;53.92;;;23.35;;
7829;SDS011;3960;51.86894000;5.39848000;2022-11-15T01:57:59;55.30;;;23.73;;
7829;SDS011;3960;51.86894000;5.39848000;2022-11-15T02:00:27;50.13;;;23.48;;
7829;SDS011;3960;51.86894000;5.39848000;2022-11-15T02:02:52;49.97;;;23.73;;
7829;SDS011;3960;51.86894000;5.39848000;2022-11-15T02:05:17;54.58;;;24.27;;
7829;SDS011;3960;51.86894000;5.39848000;2022-11-15T02:07:42;53.75;;;23.60;;
7829;SDS011;3960;51.86894000;5.39848000;2022-11-15T02:10:09;53.22;;;23.42;;
7829;SDS011;3960;51.86894000;5.39848000;2022-11-15T02:12:34;51.22;;;23.83;;
7829;SDS011;3960;51.86894000;5.39848000;2022-11-15T02:15:00;51.65;;;25.02;;
7829;SDS011;3960;51.86894000;5.39848000;2022-11-15T02:20:29;48.65;;;22.73;;
7829;SDS011;3960;51.86894000;5.39848000;2022-11-15T02:30:45;45.55;;;23.92;;
7829;SDS011;3960;51.86894000;5.39848000;2022-11-15T02:33:27;49.17;;;24.67;;
7829;SDS011;3960;51.86894000;5.39848000;2022-11-15T02:38:26;59.22;;;25.42;;
7829;SDS011;3960;51.86894000;5.39848000;2022-11-15T02:40:59;55.67;;;25.00;;
7829;SDS011;3960;51.86894000;5.39848000;2022-11-15T02:43:32;53.33;;;25.45;;
7829;SDS011;3960;51.86894000;5.39848000;2022-11-15T02:46:18;50.10;;;25.20;;
7829;SDS011;3960;51.86894000;5.39848000;2022-11-15T02:48:47;48.53;;;25.95;;
7829;SDS011;3960;51.86894000;5.39848000;2022-11-15T02:51:12;50.63;;;24.17;;
7829;SDS011;3960;51.86894000;5.39848000;2022-11-15T02:53:38;53.60;;;24.63;;
7829;SDS011;3960;51.86894000;5.39848000;2022-11-15T02:56:03;50.53;;;24.20;;
7829;SDS011;3960;51.86894000;5.39848000;2022-11-15T03:11:15;43.72;;;22.65;;
7829;SDS011;3960;51.86894000;5.39848000;2022-11-15T03:13:56;44.28;;;22.88;;
7829;SDS011;3960;51.86894000;5.39848000;2022-11-15T03:16:25;42.55;;;22.48;;
7829;SDS011;3960;51.86894000;5.39848000;2022-11-15T03:18:59;45.40;;;22.92;;
7829;SDS011;3960;51.86894000;5.39848000;2022-11-15T03:21:28;48.90;;;23.27;;
7829;SDS011;3960;51.86894000;5.39848000;2022-11-15T03:23:54;40.10;;;21.40;;
7829;SDS011;3960;51.86894000;5.39848000;2022-11-15T03:26:20;43.35;;;23.65;;
7829;SDS011;3960;51.86894000;5.39848000;2022-11-15T03:28:50;42.40;;;22.90;;
7829;SDS011;3960;51.86894000;5.39848000;2022-11-15T03:31:17;48.85;;;23.15;;
7829;SDS011;3960;51.86894000;5.39848000;2022-11-15T03:34:03;48.05;;;24.13;;
7829;SDS011;3960;51.86894000;5.39848000;2022-11-15T03:36:29;40.50;;;22.10;;
7829;SDS011;3960;51.86894000;5.39848000;2022-11-15T03:38:56;44.42;;;21.58;;
7829;SDS011;3960;51.86894000;5.39848000;2022-11-15T03:41:32;50.25;;;23.40;;
7829;SDS011;3960;51.86894000;5.39848000;2022-11-15T03:44:04;46.30;;;22.67;;
7829;SDS011;3960;51.86894000;5.39848000;2022-11-15T03:46:37;46.08;;;23.45;;
7829;SDS011;3960;51.86894000;5.39848000;2022-11-15T03:49:12;45.20;;;21.67;;
7829;SDS011;3960;51.86894000;5.39848000;2022-11-15T03:51:40;42.65;;;22.17;;
7829;SDS011;3960;51.86894000;5.39848000;2022-11-15T03:54:05;46.43;;;22.33;;
7829;SDS011;3960;51.86894000;5.39848000;2022-11-15T03:56:30;38.28;;;19.45;;
7829;SDS011;3960;51.86894000;5.39848000;2022-11-15T03:58:56;39.05;;;21.00;;
7829;SDS011;3960;51.86894000;5.39848000;2022-11-15T04:01:21;40.38;;;22.33;;
7829;SDS011;3960;51.86894000;5.39848000;2022-11-15T04:03:46;47.03;;;22.23;;
7829;SDS011;3960;51.86894000;5.39848000;2022-11-15T04:06:11;45.53;;;21.40;;
7829;SDS011;3960;51.86894000;5.39848000;2022-11-15T04:08:36;40.53;;;21.63;;
7829;SDS011;3960;51.86894000;5.39848000;2022-11-15T04:11:02;42.73;;;21.90;;
7829;SDS011;3960;51.86894000;5.39848000;2022-11-15T04:13:27;48.47;;;22.53;;
7829;SDS011;3960;51.86894000;5.39848000;2022-11-15T04:15:52;51.60;;;24.30;;
7829;SDS011;3960;51.86894000;5.39848000;2022-11-15T04:18:17;40.60;;;22.30;;
7829;SDS011;3960;51.86894000;5.39848000;2022-11-15T04:20:42;46.77;;;23.23;;
7829;SDS011;3960;51.86894000;5.39848000;2022-11-15T04:23:26;42.13;;;21.80;;
7829;SDS011;3960;51.86894000;5.39848000;2022-11-15T04:26:30;44.22;;;22.08;;
7829;SDS011;3960;51.86894000;5.39848000;2022-11-15T04:28:55;46.33;;;24.92;;
7829;SDS011;3960;51.86894000;5.39848000;2022-11-15T04:31:39;48.08;;;24.73;;
7829;SDS011;3960;51.86894000;5.39848000;2022-11-15T04:34:04;46.47;;;24.17;;
7829;SDS011;3960;51.86894000;5.39848000;2022-11-15T04:36:29;45.53;;;24.47;;
7829;SDS011;3960;51.86894000;5.39848000;2022-11-15T04:39:13;46.97;;;25.08;;
7829;SDS011;3960;51.86894000;5.39848000;2022-11-15T04:41:39;50.92;;;23.92;;
7829;SDS011;3960;51.86894000;5.39848000;2022-11-15T04:44:04;47.27;;;24.57;;
7829;SDS011;3960;51.86894000;5.39848000;2022-11-15T04:46:29;46.33;;;23.87;;
7829;SDS011;3960;51.86894000;5.39848000;2022-11-15T04:48:54;45.20;;;23.33;;
7829;SDS011;3960;51.86894000;5.39848000;2022-11-15T04:51:19;44.85;;;23.52;;
7829;SDS011;3960;51.86894000;5.39848000;2022-11-15T04:53:45;44.42;;;22.98;;
7829;SDS011;3960;51.86894000;5.39848000;2022-11-15T04:56:10;49.00;;;22.57;;
7829;SDS011;3960;51.86894000;5.39848000;2022-11-15T04:58:35;44.20;;;23.67;;
7829;SDS011;3960;51.86894000;5.39848000;2022-11-15T05:01:10;45.40;;;22.77;;
7829;SDS011;3960;51.86894000;5.39848000;2022-11-15T05:03:35;50.05;;;23.63;;
7829;SDS011;3960;51.86894000;5.39848000;2022-11-15T05:06:19;46.60;;;23.08;;
7829;SDS011;3960;51.86894000;5.39848000;2022-11-15T05:08:44;46.87;;;24.10;;
7829;SDS011;3960;51.86894000;5.39848000;2022-11-15T05:11:09;43.70;;;22.70;;
7829;SDS011;3960;51.86894000;5.39848000;2022-11-15T05:13:34;52.77;;;23.73;;
7829;SDS011;3960;51.86894000;5.39848000;2022-11-15T05:15:59;45.63;;;23.37;;
7829;SDS011;3960;51.86894000;5.39848000;2022-11-15T05:18:25;50.53;;;24.50;;
7829;SDS011;3960;51.86894000;5.39848000;2022-11-15T05:20:50;55.37;;;24.60;;
7829;SDS011;3960;51.86894000;5.39848000;2022-11-15T05:23:15;49.30;;;24.42;;
7829;SDS011;3960;51.86894000;5.39848000;2022-11-15T05:25:40;57.90;;;24.70;;
7829;SDS011;3960;51.86894000;5.39848000;2022-11-15T05:28:05;56.60;;;26.77;;
7829;SDS011;3960;51.86894000;5.39848000;2022-11-15T05:30:30;47.50;;;23.73;;
7829;SDS011;3960;51.86894000;5.39848000;2022-11-15T05:32:56;46.90;;;23.97;;
7829;SDS011;3960;51.86894000;5.39848000;2022-11-15T05:35:32;49.03;;;23.67;;
7829;SDS011;3960;51.86894000;5.39848000;2022-11-15T05:37:59;45.05;;;23.05;;
7829;SDS011;3960;51.86894000;5.39848000;2022-11-15T05:40:24;48.25;;;24.25;;
7829;SDS011;3960;51.86894000;5.39848000;2022-11-15T05:42:50;48.60;;;24.17;;
7829;SDS011;3960;51.86894000;5.39848000;2022-11-15T05:45:15;47.90;;;24.87;;
7829;SDS011;3960;51.86894000;5.39848000;2022-11-15T05:47:41;50.92;;;22.85;;
7829;SDS011;3960;51.86894000;5.39848000;2022-11-15T05:50:06;49.40;;;25.67;;
7829;SDS011;3960;51.86894000;5.39848000;2022-11-15T05:52:33;49.92;;;25.50;;
7829;SDS011;3960;51.86894000;5.39848000;2022-11-15T05:54:59;51.65;;;23.77;;
7829;SDS011;3960;51.86894000;5.39848000;2022-11-15T05:57:25;54.80;;;24.93;;
7829;SDS011;3960;51.86894000;5.39848000;2022-11-15T05:59:50;52.47;;;24.25;;
7829;SDS011;3960;51.86894000;5.39848000;2022-11-15T06:02:15;58.10;;;25.60;;
7829;SDS011;3960;51.86894000;5.39848000;2022-11-15T06:04:40;45.40;;;24.50;;
7829;SDS011;3960;51.86894000;5.39848000;2022-11-15T06:07:06;51.80;;;24.53;;
7829;SDS011;3960;51.86894000;5.39848000;2022-11-15T06:09:31;49.90;;;24.40;;
7829;SDS011;3960;51.86894000;5.39848000;2022-11-15T06:11:56;48.40;;;24.47;;
7829;SDS011;3960;51.86894000;5.39848000;2022-11-15T06:14:21;52.57;;;24.80;;
7829;SDS011;3960;51.86894000;5.39848000;2022-11-15T06:16:46;51.58;;;24.17;;
7829;SDS011;3960;51.86894000;5.39848000;2022-11-15T06:19:11;49.37;;;24.70;;
7829;SDS011;3960;51.86894000;5.39848000;2022-11-15T06:21:37;50.47;;;25.13;;
7829;SDS011;3960;51.86894000;5.39848000;2022-11-15T06:24:02;54.70;;;25.45;;
7829;SDS011;3960;51.86894000;5.39848000;2022-11-15T06:26:27;54.85;;;24.25;;
7829;SDS011;3960;51.86894000;5.39848000;2022-11-15T06:28:52;47.27;;;23.43;;
7829;SDS011;3960;51.86894000;5.39848000;2022-11-15T06:31:17;51.30;;;25.48;;
7829;SDS011;3960;51.86894000;5.39848000;2022-11-15T06:33:43;51.92;;;25.85;;
7829;SDS011;3960;51.86894000;5.39848000;2022-11-15T06:36:09;51.60;;;23.13;;
7829;SDS011;3960;51.86894000;5.39848000;2022-11-15T06:38:34;49.22;;;24.80;;
7829;SDS011;3960;51.86894000;5.39848000;2022-11-15T06:41:07;47.40;;;22.83;;
7829;SDS011;3960;51.86894000;5.39848000;2022-11-15T06:43:33;46.47;;;24.13;;
7829;SDS011;3960;51.86894000;5.39848000;2022-11-15T06:45:58;48.63;;;25.15;;
7829;SDS011;3960;51.86894000;5.39848000;2022-11-15T06:48:24;50.63;;;25.70;;
7829;SDS011;3960;51.86894000;5.39848000;2022-11-15T06:50:50;51.53;;;24.20;;
7829;SDS011;3960;51.86894000;5.39848000;2022-11-15T06:53:15;50.40;;;24.02;;
7829;SDS011;3960;51.86894000;5.39848000;2022-11-15T06:55:40;50.27;;;23.40;;
7829;SDS011;3960;51.86894000;5.39848000;2022-11-15T06:58:06;49.45;;;23.73;;
7829;SDS011;3960;51.86894000;5.39848000;2022-11-15T07:00:31;53.03;;;24.17;;
7829;SDS011;3960;51.86894000;5.39848000;2022-11-15T07:02:59;49.08;;;23.00;;
7829;SDS011;3960;51.86894000;5.39848000;2022-11-15T07:05:24;51.03;;;23.58;;
7829;SDS011;3960;51.86894000;5.39848000;2022-11-15T07:08:07;51.10;;;22.97;;
7829;SDS011;3960;51.86894000;5.39848000;2022-11-15T07:10:33;49.15;;;25.00;;
7829;SDS011;3960;51.86894000;5.39848000;2022-11-15T07:12:58;42.45;;;22.10;;
7829;SDS011;3960;51.86894000;5.39848000;2022-11-15T07:15:24;45.93;;;22.03;;
7829;SDS011;3960;51.86894000;5.39848000;2022-11-15T07:17:50;42.67;;;22.52;;
7829;SDS011;3960;51.86894000;5.39848000;2022-11-15T07:20:15;38.28;;;21.67;;
7829;SDS011;3960;51.86894000;5.39848000;2022-11-15T07:22:41;39.83;;;20.80;;
7829;SDS011;3960;51.86894000;5.39848000;2022-11-15T07:25:07;46.80;;;22.23;;
7829;SDS011;3960;51.86894000;5.39848000;2022-11-15T07:27:32;45.13;;;21.52;;
7829;SDS011;3960;51.86894000;5.39848000;2022-11-15T07:29:57;37.83;;;19.95;;
7829;SDS011;3960;51.86894000;5.39848000;2022-11-15T07:32:23;43.72;;;20.00;;
7829;SDS011;3960;51.86894000;5.39848000;2022-11-15T07:34:48;40.77;;;21.07;;
7829;SDS011;3960;51.86894000;5.39848000;2022-11-15T07:37:13;38.07;;;19.87;;
7829;SDS011;3960;51.86894000;5.39848000;2022-11-15T07:39:38;38.45;;;19.58;;
7829;SDS011;3960;51.86894000;5.39848000;2022-11-15T07:42:03;37.50;;;19.25;;
7829;SDS011;3960;51.86894000;5.39848000;2022-11-15T07:44:47;38.95;;;19.70;;
7829;SDS011;3960;51.86894000;5.39848000;2022-11-15T07:47:12;43.77;;;20.10;;
7829;SDS011;3960;51.86894000;5.39848000;2022-11-15T07:49:37;36.63;;;18.02;;
7829;SDS011;3960;51.86894000;5.39848000;2022-11-15T07:52:03;37.53;;;18.17;;
7829;SDS011;3960;51.86894000;5.39848000;2022-11-15T07:54:28;34.80;;;18.85;;
7829;SDS011;3960;51.86894000;5.39848000;2022-11-15T07:56:53;35.50;;;17.60;;
7829;SDS011;3960;51.86894000;5.39848000;2022-11-15T07:59:18;37.83;;;17.27;;
7829;SDS011;3960;51.86894000;5.39848000;2022-11-15T08:01:44;30.70;;;16.10;;
7829;SDS011;3960;51.86894000;5.39848000;2022-11-15T08:04:10;34.03;;;17.45;;
7829;SDS011;3960;51.86894000;5.39848000;2022-11-15T08:06:35;29.42;;;15.85;;
7829;SDS011;3960;51.86894000;5.39848000;2022-11-15T08:09:00;28.92;;;16.05;;
7829;SDS011;3960;51.86894000;5.39848000;2022-11-15T08:11:25;29.20;;;16.40;;
7829;SDS011;3960;51.86894000;5.39848000;2022-11-15T08:13:50;29.53;;;15.40;;
7829;SDS011;3960;51.86894000;5.39848000;2022-11-15T08:16:16;27.38;;;16.38;;
7829;SDS011;3960;51.86894000;5.39848000;2022-11-15T08:18:41;27.20;;;14.63;;
7829;SDS011;3960;51.86894000;5.39848000;2022-11-15T08:21:08;24.40;;;15.60;;
7829;SDS011;3960;51.86894000;5.39848000;2022-11-15T08:23:34;28.77;;;15.48;;
7829;SDS011;3960;51.86894000;5.39848000;2022-11-15T08:26:00;31.25;;;15.45;;
7829;SDS011;3960;51.86894000;5.39848000;2022-11-15T08:28:26;30.00;;;15.70;;
7829;SDS011;3960;51.86894000;5.39848000;2022-11-15T08:30:51;31.05;;;15.43;;
7829;SDS011;3960;51.86894000;5.39848000;2022-11-15T08:33:16;28.08;;;15.82;;
7829;SDS011;3960;51.86894000;5.39848000;2022-11-15T08:35:41;26.10;;;15.50;;
7829;SDS011;3960;51.86894000;5.39848000;2022-11-15T08:38:07;25.40;;;16.15;;
7829;SDS011;3960;51.86894000;5.39848000;2022-11-15T08:40:32;24.77;;;13.73;;
7829;SDS011;3960;51.86894000;5.39848000;2022-11-15T08:42:57;30.83;;;15.93;;
7829;SDS011;3960;51.86894000;5.39848000;2022-11-15T08:45:23;25.48;;;15.55;;
7829;SDS011;3960;51.86894000;5.39848000;2022-11-15T08:47:48;27.27;;;15.93;;
7829;SDS011;3960;51.86894000;5.39848000;2022-11-15T08:50:14;27.60;;;14.90;;
7829;SDS011;3960;51.86894000;5.39848000;2022-11-15T08:52:39;23.20;;;14.82;;
7829;SDS011;3960;51.86894000;5.39848000;2022-11-15T08:55:23;21.52;;;14.10;;
7829;SDS011;3960;51.86894000;5.39848000;2022-11-15T08:57:55;20.80;;;13.98;;
7829;SDS011;3960;51.86894000;5.39848000;2022-11-15T09:00:40;21.08;;;13.02;;
7829;SDS011;3960;51.86894000;5.39848000;2022-11-15T09:03:05;22.33;;;12.83;;
7829;SDS011;3960;51.86894000;5.39848000;2022-11-15T09:05:31;22.55;;;11.48;;
7829;SDS011;3960;51.86894000;5.39848000;2022-11-15T09:07:56;20.30;;;11.23;;
7829;SDS011;3960;51.86894000;5.39848000;2022-11-15T09:10:21;17.88;;;9.93;;
7829;SDS011;3960;51.86894000;5.39848000;2022-11-15T09:12:46;17.42;;;9.07;;
7829;SDS011;3960;51.86894000;5.39848000;2022-11-15T09:15:14;17.65;;;9.98;;
7829;SDS011;3960;51.86894000;5.39848000;2022-11-15T09:17:39;19.00;;;9.52;;
7829;SDS011;3960;51.86894000;5.39848000;2022-11-15T09:20:04;15.15;;;9.48;;
7829;SDS011;3960;51.86894000;5.39848000;2022-11-15T09:22:30;15.30;;;8.73;;
7829;SDS011;3960;51.86894000;5.39848000;2022-11-15T09:24:55;16.43;;;8.97;;
7829;SDS011;3960;51.86894000;5.39848000;2022-11-15T09:27:20;13.37;;;7.70;;
7829;SDS011;3960;51.86894000;5.39848000;2022-11-15T09:29:45;10.73;;;8.13;;
7829;SDS011;3960;51.86894000;5.39848000;2022-11-15T09:32:10;15.33;;;8.27;;
7829;SDS011;3960;51.86894000;5.39848000;2022-11-15T09:34:35;11.80;;;7.37;;
7829;SDS011;3960;51.86894000;5.39848000;2022-11-15T09:37:01;11.10;;;7.47;;
7829;SDS011;3960;51.86894000;5.39848000;2022-11-15T09:39:26;18.33;;;7.60;;
7829;SDS011;3960;51.86894000;5.39848000;2022-11-15T09:44:21;13.37;;;6.27;;
7829;SDS011;3960;51.86894000;5.39848000;2022-11-15T09:47:06;10.32;;;5.75;;
7829;SDS011;3960;51.86894000;5.39848000;2022-11-15T09:49:34;9.98;;;5.78;;
7829;SDS011;3960;51.86894000;5.39848000;2022-11-15T09:51:59;8.23;;;5.28;;
7829;SDS011;3960;51.86894000;5.39848000;2022-11-15T09:54:34;10.88;;;4.80;;
7829;SDS011;3960;51.86894000;5.39848000;2022-11-15T10:04:37;7.70;;;4.95;;
7829;SDS011;3960;51.86894000;5.39848000;2022-11-15T10:07:12;7.82;;;4.65;;
7829;SDS011;3960;51.86894000;5.39848000;2022-11-15T10:09:41;7.70;;;4.38;;
7829;SDS011;3960;51.86894000;5.39848000;2022-11-15T10:12:07;6.25;;;4.50;;
7829;SDS011;3960;51.86894000;5.39848000;2022-11-15T10:14:33;7.10;;;4.53;;
7829;SDS011;3960;51.86894000;5.39848000;2022-11-15T10:17:21;7.63;;;4.38;;
7829;SDS011;3960;51.86894000;5.39848000;2022-11-15T10:24:42;6.57;;;4.67;;
7829;SDS011;3960;51.86894000;5.39848000;2022-11-15T10:27:11;7.45;;;4.10;;
7829;SDS011;3960;51.86894000;5.39848000;2022-11-15T10:29:40;6.55;;;4.13;;
7829;SDS011;3960;51.86894000;5.39848000;2022-11-15T10:32:07;7.18;;;3.90;;
7829;SDS011;3960;51.86894000;5.39848000;2022-11-15T10:34:35;5.83;;;3.57;;
7829;SDS011;3960;51.86894000;5.39848000;2022-11-15T10:37:00;4.85;;;3.65;;
7829;SDS011;3960;51.86894000;5.39848000;2022-11-15T10:39:27;5.00;;;3.50;;
7829;SDS011;3960;51.86894000;5.39848000;2022-11-15T10:41:52;7.00;;;3.20;;
7829;SDS011;3960;51.86894000;5.39848000;2022-11-15T10:44:19;7.57;;;3.40;;
7829;SDS011;3960;51.86894000;5.39848000;2022-11-15T10:46:49;5.65;;;3.08;;
7829;SDS011;3960;51.86894000;5.39848000;2022-11-15T10:49:28;7.53;;;2.97;;
7829;SDS011;3960;51.86894000;5.39848000;2022-11-15T10:57:06;6.13;;;2.60;;
7829;SDS011;3960;51.86894000;5.39848000;2022-11-15T10:59:32;5.05;;;2.10;;
7829;SDS011;3960;51.86894000;5.39848000;2022-11-15T11:01:58;5.03;;;2.88;;
7829;SDS011;3960;51.86894000;5.39848000;2022-11-15T11:04:24;7.10;;;1.85;;
7829;SDS011;3960;51.86894000;5.39848000;2022-11-15T11:06:50;3.23;;;1.70;;
7829;SDS011;3960;51.86894000;5.39848000;2022-11-15T11:09:22;4.13;;;1.70;;
7829;SDS011;3960;51.86894000;5.39848000;2022-11-15T11:11:49;3.25;;;1.85;;
7829;SDS011;3960;51.86894000;5.39848000;2022-11-15T11:14:21;4.95;;;1.70;;
7829;SDS011;3960;51.86894000;5.39848000;2022-11-15T11:16:58;3.28;;;1.52;;
7829;SDS011;3960;51.86894000;5.39848000;2022-11-15T11:30:00;2.45;;;1.17;;
7829;SDS011;3960;51.86894000;5.39848000;2022-11-15T11:32:42;5.85;;;1.30;;
7829;SDS011;3960;51.86894000;5.39848000;2022-11-15T11:35:17;4.35;;;1.50;;
7829;SDS011;3960;51.86894000;5.39848000;2022-11-15T11:37:54;5.35;;;1.23;;
7829;SDS011;3960;51.86894000;5.39848000;2022-11-15T11:42:59;5.78;;;2.63;;
7829;SDS011;3960;51.86894000;5.39848000;2022-11-15T11:48:03;6.18;;;2.15;;
7829;SDS011;3960;51.86894000;5.39848000;2022-11-15T11:50:33;5.05;;;1.52;;
7829;SDS011;3960;51.86894000;5.39848000;2022-11-15T11:55:46;4.38;;;1.50;;
7829;SDS011;3960;51.86894000;5.39848000;2022-11-15T11:58:14;6.65;;;1.30;;
7829;SDS011;3960;51.86894000;5.39848000;2022-11-15T12:00:41;5.30;;;1.50;;
7829;SDS011;3960;51.86894000;5.39848000;2022-11-15T12:03:12;3.65;;;1.00;;
7829;SDS011;3960;51.86894000;5.39848000;2022-11-15T12:05:52;5.30;;;1.58;;
7829;SDS011;3960;51.86894000;5.39848000;2022-11-15T12:10:53;4.18;;;1.42;;
7829;SDS011;3960;51.86894000;5.39848000;2022-11-15T12:13:24;1.92;;;1.30;;
7829;SDS011;3960;51.86894000;5.39848000;2022-11-15T12:15:55;4.55;;;1.25;;
7829;SDS011;3960;51.86894000;5.39848000;2022-11-15T12:18:21;6.50;;;1.63;;
7829;SDS011;3960;51.86894000;5.39848000;2022-11-15T12:20:50;2.57;;;1.30;;
7829;SDS011;3960;51.86894000;5.39848000;2022-11-15T12:28:31;6.32;;;1.50;;
7829;SDS011;3960;51.86894000;5.39848000;2022-11-15T12:31:01;4.28;;;1.40;;
7829;SDS011;3960;51.86894000;5.39848000;2022-11-15T12:33:29;3.95;;;1.50;;
7829;SDS011;3960;51.86894000;5.39848000;2022-11-15T12:41:19;9.35;;;1.40;;
7829;SDS011;3960;51.86894000;5.39848000;2022-11-15T12:43:45;5.55;;;1.00;;
7829;SDS011;3960;51.86894000;5.39848000;2022-11-15T12:46:12;5.45;;;1.80;;
7829;SDS011;3960;51.86894000;5.39848000;2022-11-15T12:51:03;4.00;;;1.23;;
7829;SDS011;3960;51.86894000;5.39848000;2022-11-15T12:53:31;4.82;;;1.50;;
7829;SDS011;3960;51.86894000;5.39848000;2022-11-15T12:58:38;6.68;;;1.70;;
7829;SDS011;3960;51.86894000;5.39848000;2022-11-15T13:01:08;8.05;;;1.63;;
7829;SDS011;3960;51.86894000;5.39848000;2022-11-15T13:03:34;3.55;;;1.80;;
7829;SDS011;3960;51.86894000;5.39848000;2022-11-15T13:06:00;5.65;;;1.45;;
7829;SDS011;3960;51.86894000;5.39848000;2022-11-15T13:08:39;4.60;;;1.92;;
7829;SDS011;3960;51.86894000;5.39848000;2022-11-15T13:11:41;3.53;;;1.70;;
7829;SDS011;3960;51.86894000;5.39848000;2022-11-15T13:13:56;9.23;;;2.25;;
7829;SDS011;3960;51.86894000;5.39848000;2022-11-15T13:16:21;6.55;;;1.92;;
7829;SDS011;3960;51.86894000;5.39848000;2022-11-15T13:18:53;5.60;;;1.83;;
7829;SDS011;3960;51.86894000;5.39848000;2022-11-15T13:21:20;4.40;;;1.75;;
7829;SDS011;3960;51.86894000;5.39848000;2022-11-15T13:24:04;4.05;;;1.80;;
7829;SDS011;3960;51.86894000;5.39848000;2022-11-15T13:26:29;11.63;;;1.90;;
7829;SDS011;3960;51.86894000;5.39848000;2022-11-15T13:28:55;6.40;;;1.65;;
7829;SDS011;3960;51.86894000;5.39848000;2022-11-15T13:33:49;8.82;;;1.85;;
7829;SDS011;3960;51.86894000;5.39848000;2022-11-15T13:36:22;7.00;;;2.15;;
7829;SDS011;3960;51.86894000;5.39848000;2022-11-15T13:38:59;6.47;;;1.80;;
7829;SDS011;3960;51.86894000;5.39848000;2022-11-15T13:41:35;5.00;;;1.65;;
7829;SDS011;3960;51.86894000;5.39848000;2022-11-15T13:44:01;1.33;;;1.10;;
7829;SDS011;3960;51.86894000;5.39848000;2022-11-15T13:46:27;4.38;;;1.80;;
7829;SDS011;3960;51.86894000;5.39848000;2022-11-15T13:48:59;6.53;;;2.60;;
7829;SDS011;3960;51.86894000;5.39848000;2022-11-15T13:54:06;5.75;;;1.90;;
7829;SDS011;3960;51.86894000;5.39848000;2022-11-15T13:56:32;6.03;;;1.50;;
7829;SDS011;3960;51.86894000;5.39848000;2022-11-15T13:58:58;7.25;;;2.25;;
7829;SDS011;3960;51.86894000;5.39848000;2022-11-15T14:01:30;2.45;;;1.33;;
7829;SDS011;3960;51.86894000;5.39848000;2022-11-15T14:03:58;4.78;;;1.52;;
7829;SDS011;3960;51.86894000;5.39848000;2022-11-15T14:06:24;8.10;;;2.03;;
7829;SDS011;3960;51.86894000;5.39848000;2022-11-15T14:09:00;6.70;;;1.52;;
7829;SDS011;3960;51.86894000;5.39848000;2022-11-15T14:11:26;5.80;;;1.70;;
7829;SDS011;3960;51.86894000;5.39848000;2022-11-15T14:16:33;4.05;;;1.67;;
7829;SDS011;3960;51.86894000;5.39848000;2022-11-15T14:18:58;2.83;;;1.27;;
7829;SDS011;3960;51.86894000;5.39848000;2022-11-15T14:21:23;3.70;;;1.27;;
7829;SDS011;3960;51.86894000;5.39848000;2022-11-15T14:23:49;5.40;;;1.20;;
7829;SDS011;3960;51.86894000;5.39848000;2022-11-15T14:26:31;4.18;;;1.40;;
7829;SDS011;3960;51.86894000;5.39848000;2022-11-15T14:28:57;5.13;;;1.38;;
7829;SDS011;3960;51.86894000;5.39848000;2022-11-15T14:31:42;3.90;;;1.60;;